Time;durP1;ratioP1;P1;durP2;ratioP2;P2;SDS_P1;SDS_P2;PMS_P1;PMS_P2;Temp;Humidity;BMP_temperature;BMP_pressure;BME280_temperature;BME280_humidity;BME280_pressure;Samples;Min_cycle;Max_cycle;Signal;HPM_P1;HPM_P2
2023/08/03 05:35:30;;;;;;;5.20;1.23;;;;;;;19.14;71.14;99159.69;4306354;23;20245;-72
2023/08/03 05:37:58;;;;;;;4.53;1.20;;;;;;;19.20;70.94;99163.31;4903796;29;20263;-69
2023/08/03 05:40:35;;;;;;;5.13;1.10;;;;;;;19.28;70.64;99164.81;4905615;29;20299;-70
2023/08/03 05:43:31;;;;;;;4.63;1.07;;;;;;;19.30;70.38;99168.09;4906430;29;21175;-74
2023/08/03 05:46:06;;;;;;;5.00;1.00;;;;;;;19.38;70.30;99162.34;4904070;29;20227;-69
2023/08/03 05:48:48;;;;;;;;;;;;;;;;;;;;;
2023/08/03 05:51:29;;;;;;;5.53;1.20;;;;;;;19.36;70.51;99157.19;4905913;29;20216;-72
2023/08/03 05:53:57;;;;;;;6.53;1.40;;;;;;;19.43;70.20;99151.72;4904747;29;20697;-72
2023/08/03 05:56:26;;;;;;;5.07;0.93;;;;;;;19.48;70.20;99157.22;4903667;29;20326;-71
2023/08/03 05:58:58;;;;;;;5.00;1.30;;;;;;;19.52;69.43;99169.97;4900191;29;20241;-71
2023/08/03 06:01:26;;;;;;;6.90;1.57;;;;;;;19.50;69.65;99173.94;4901607;29;20337;-72
2023/08/03 06:03:55;;;;;;;5.67;1.33;;;;;;;19.50;69.56;99171.25;4900676;29;20214;-72
2023/08/03 06:06:24;;;;;;;8.23;1.30;;;;;;;19.44;68.96;99178.34;4896734;29;20213;-66
2023/08/03 06:08:56;;;;;;;8.07;1.43;;;;;;;19.44;69.30;99185.59;4894853;29;20208;-72
2023/08/03 06:11:33;;;;;;;5.20;1.23;;;;;;;19.35;70.05;99187.81;4896296;29;20280;-74
2023/08/03 06:14:03;;;;;;;6.57;1.33;;;;;;;19.33;70.43;99189.13;4901565;29;20212;-74
2023/08/03 06:16:31;;;;;;;7.17;1.53;;;;;;;19.46;69.92;99183.47;4900923;29;20231;-66
2023/08/03 06:18:59;;;;;;;8.13;1.33;;;;;;;19.38;69.84;99191.91;4905034;29;20284;-71
2023/08/03 06:21:33;;;;;;;8.83;1.43;;;;;;;19.37;70.12;99195.66;4900826;29;20201;-68
2023/08/03 06:24:08;;;;;;;4.63;0.97;;;;;;;19.38;70.31;99192.72;4900541;29;20213;-66
2023/08/03 06:26:39;;;;;;;4.47;0.90;;;;;;;19.39;70.69;99198.94;4901431;29;20213;-69
2023/08/03 06:29:14;;;;;;;5.10;0.90;;;;;;;19.37;70.17;99201.03;4900312;29;20219;-67
2023/08/03 06:31:43;;;;;;;6.27;1.10;;;;;;;19.35;70.33;99198.56;4897160;29;20213;-73
2023/08/03 06:34:12;;;;;;;5.97;1.07;;;;;;;19.49;70.06;99208.06;4896222;29;20247;-71
2023/08/03 06:36:51;;;;;;;6.23;1.40;;;;;;;19.50;70.17;99219.63;4895724;29;20220;-72
2023/08/03 06:39:28;;;;;;;5.70;1.03;;;;;;;19.49;70.08;99213.44;4894627;29;20304;-72
2023/08/03 06:42:05;;;;;;;4.50;0.93;;;;;;;19.53;69.72;99211.91;4897376;29;20213;-71
2023/08/03 06:44:37;;;;;;;7.07;1.50;;;;;;;19.60;70.38;99206.41;4896325;29;20215;-70
2023/08/03 06:47:17;;;;;;;7.43;1.60;;;;;;;19.57;70.25;99217.63;4896986;29;20213;-71
2023/08/03 06:49:50;;;;;;;6.60;1.63;;;;;;;19.59;70.81;99220.09;4897161;29;20207;-72
2023/08/03 06:52:22;;;;;;;8.87;1.13;;;;;;;19.59;70.93;99223.59;4895173;29;20222;-69
2023/08/03 06:55:05;;;;;;;4.73;1.27;;;;;;;19.63;71.07;99218.53;4897358;29;20213;-71
2023/08/03 06:57:35;;;;;;;8.90;1.77;;;;;;;19.51;71.28;99218.59;4897959;29;20316;-72
2023/08/03 07:00:05;;;;;;;9.50;1.63;;;;;;;19.48;71.26;99208.28;4900551;29;20676;-71
2023/08/03 07:02:33;;;;;;;6.80;1.43;;;;;;;19.39;71.26;99223.94;4899721;29;20214;-71
2023/08/03 07:05:01;;;;;;;7.57;1.67;;;;;;;19.43;70.57;99238.56;4897810;29;20284;-73
2023/08/03 07:07:33;;;;;;;9.57;1.60;;;;;;;19.43;69.14;99224.28;4897390;29;20233;-72
2023/08/03 07:10:01;;;;;;;8.27;1.00;;;;;;;19.39;69.41;99231.19;4899067;29;20665;-69
2023/08/03 07:12:29;;;;;;;5.90;1.40;;;;;;;19.43;69.60;99237.72;4898777;29;20216;-73
2023/08/03 07:14:58;;;;;;;7.90;1.80;;;;;;;19.36;69.57;99234.31;4902192;29;20286;-70
2023/08/03 07:17:36;;;;;;;9.43;1.93;;;;;;;19.39;69.19;99242.75;4899852;29;20210;-71
2023/08/03 07:20:08;;;;;;;6.10;1.10;;;;;;;19.46;69.08;99240.75;4895680;29;20316;-71
2023/08/03 07:22:38;;;;;;;7.40;1.60;;;;;;;19.35;70.20;99227.34;4898425;29;20749;-72
2023/08/03 07:25:07;;;;;;;9.10;1.43;;;;;;;19.44;69.72;99240.16;4894338;29;20217;-73
2023/08/03 07:27:35;;;;;;;6.03;1.43;;;;;;;19.45;70.29;99240.97;4894533;29;20251;-73
2023/08/03 07:30:03;;;;;;;10.43;1.80;;;;;;;19.45;70.42;99246.34;4895242;29;20216;-71
2023/08/03 07:32:31;;;;;;;5.93;1.50;;;;;;;19.37;70.71;99254.78;4893467;29;20217;-73
2023/08/03 07:35:00;;;;;;;5.93;1.50;;;;;;;19.31;70.96;99258.41;4895179;29;20217;-72
2023/08/03 07:37:28;;;;;;;4.53;1.47;;;;;;;19.32;71.02;99263.56;4894660;29;20225;-71
2023/08/03 07:39:58;;;;;;;3.90;0.90;;;;;;;19.33;71.35;99262.50;4893264;29;20238;-74
2023/08/03 07:42:26;;;;;;;6.63;1.80;;;;;;;19.31;71.72;99259.22;4894457;29;20219;-69
2023/08/03 07:44:54;;;;;;;7.50;1.40;;;;;;;19.33;71.35;99261.69;4897612;29;20673;-73
2023/08/03 07:47:25;;;;;;;6.07;1.13;;;;;;;19.26;71.86;99274.44;4897533;29;20692;-72
2023/08/03 07:49:55;;;;;;;4.77;1.13;;;;;;;19.35;71.68;99268.44;4896440;29;20593;-69
2023/08/03 07:52:24;;;;;;;9.93;1.83;;;;;;;19.31;72.62;99271.84;4892872;29;20209;-70
2023/08/03 07:54:55;;;;;;;6.93;1.63;;;;;;;19.26;73.39;99290.56;4894891;29;20217;-73
2023/08/03 07:57:25;;;;;;;4.13;0.93;;;;;;;19.20;74.44;99283.41;4895055;29;20606;-72
2023/08/03 07:59:54;;;;;;;7.50;1.40;;;;;;;19.24;74.94;99281.91;4892211;29;20237;-72
2023/08/03 08:02:22;;;;;;;7.60;1.40;;;;;;;19.32;75.18;99295.00;4896882;29;20209;-69
2023/08/03 08:04:51;;;;;;;4.17;1.00;;;;;;;19.36;75.28;99301.53;4893996;29;20212;-69
2023/08/03 08:07:23;;;;;;;3.53;0.70;;;;;;;19.30;75.37;99302.47;4893982;29;20344;-72
2023/08/03 08:09:54;;;;;;;4.57;0.97;;;;;;;19.44;75.05;99295.78;4895978;29;20618;-69
2023/08/03 08:12:22;;;;;;;6.37;1.40;;;;;;;19.48;74.95;99300.50;4893463;29;20213;-69
2023/08/03 08:14:56;;;;;;;4.53;1.10;;;;;;;19.52;74.17;99301.69;4895205;29;20210;-71
2023/08/03 08:17:24;;;;;;;7.40;1.40;;;;;;;19.37;74.79;99295.09;4892940;29;20292;-68
2023/08/03 08:19:57;;;;;;;4.93;1.40;;;;;;;19.32;75.33;99301.19;4893245;29;20245;-71
2023/08/03 08:22:25;;;;;;;4.93;1.57;;;;;;;19.37;74.55;99295.91;4897628;29;20217;-69
2023/08/03 08:24:53;;;;;;;4.80;0.90;;;;;;;19.33;75.13;99302.00;4893291;29;20305;-71
2023/08/03 08:27:21;;;;;;;7.03;1.20;;;;;;;19.32;74.87;99301.19;4895982;29;20209;-69
2023/08/03 08:29:50;;;;;;;5.97;1.23;;;;;;;19.20;75.61;99299.53;4893881;29;20273;-70
2023/08/03 08:32:22;;;;;;;9.83;1.60;;;;;;;19.23;75.36;99312.50;4897896;29;20560;-66
2023/08/03 08:34:50;;;;;;;5.27;1.10;;;;;;;19.15;75.43;99317.19;4894497;29;20281;-69
2023/08/03 08:37:17;;;;;;;5.97;1.00;;;;;;;19.25;74.78;99326.53;4897156;29;20639;-69
2023/08/03 08:39:46;;;;;;;5.73;1.17;;;;;;;19.25;74.53;99326.53;4896313;29;20223;-73
2023/08/03 08:42:15;;;;;;;5.63;1.07;;;;;;;19.25;74.88;99338.09;4895206;29;20647;-72
2023/08/03 08:44:52;;;;;;;13.13;1.37;;;;;;;19.28;74.72;99336.81;4896858;29;20220;-71
2023/08/03 08:47:24;;;;;;;4.17;0.97;;;;;;;19.32;74.43;99344.19;4896713;29;20210;-69
2023/08/03 08:49:54;;;;;;;5.97;1.33;;;;;;;19.34;73.99;99338.59;4894502;29;20209;-71
2023/08/03 08:52:46;;;;;;;4.63;1.20;;;;;;;19.30;74.93;99334.72;4899553;29;20226;-71
2023/08/03 08:55:20;;;;;;;5.37;1.17;;;;;;;19.36;75.57;99328.41;4900702;29;20264;-71
2023/08/03 08:58:11;;;;;;;5.30;1.37;;;;;;;19.56;75.68;99326.22;4897113;29;20220;-69
2023/08/03 09:00:44;;;;;;;4.27;1.17;;;;;;;19.66;74.86;99322.94;4898635;29;20226;-70
2023/08/03 09:03:14;;;;;;;3.30;0.80;;;;;;;19.70;74.94;99330.31;4899790;29;20597;-72
2023/08/03 09:05:46;;;;;;;7.10;1.20;;;;;;;19.77;74.71;99331.03;4900888;29;20644;-73
2023/08/03 09:08:18;;;;;;;4.73;1.03;;;;;;;19.78;74.23;99332.66;4893927;29;20244;-71
2023/08/03 09:11:04;;;;;;;3.63;0.70;;;;;;;19.71;74.47;99342.69;4897679;29;20256;-75
2023/08/03 09:13:35;;;;;;;2.83;0.67;;;;;;;19.69;74.50;99352.06;4892943;29;20301;-75
2023/08/03 09:16:04;;;;;;;4.23;1.00;;;;;;;19.56;74.98;99355.81;4897617;29;20213;-71
2023/08/03 09:18:33;;;;;;;3.00;0.80;;;;;;;19.52;74.89;99360.03;4898431;29;20230;-73
2023/08/03 09:21:11;;;;;;;3.87;1.07;;;;;;;19.60;75.14;99361.53;4896619;29;20232;-74
2023/08/03 09:23:42;;;;;;;3.23;0.73;;;;;;;19.47;75.24;99379.53;4898911;29;20221;-71
2023/08/03 09:26:13;;;;;;;2.23;0.50;;;;;;;19.37;75.84;99384.63;4901147;29;20217;-73
2023/08/03 09:29:12;;;;;;;6.97;0.80;;;;;;;19.31;76.55;99390.94;4897861;29;20273;-71
2023/08/03 09:31:50;;;;;;;2.70;0.80;;;;;;;19.32;76.71;99389.88;4899907;29;20222;-70
2023/08/03 09:34:23;;;;;;;3.60;0.77;;;;;;;19.32;76.78;99397.13;4895285;29;20241;-70
2023/08/03 09:36:54;;;;;;;1.63;0.70;;;;;;;19.31;78.30;99407.06;4898339;29;20285;-66
2023/08/03 09:39:34;;;;;;;3.00;0.80;;;;;;;19.33;78.27;99398.75;4899843;29;21056;-71
2023/08/03 09:42:04;;;;;;;2.70;0.80;;;;;;;19.49;77.21;99401.63;4896293;29;20272;-69
2023/08/03 09:44:34;;;;;;;1.73;0.70;;;;;;;19.59;77.06;99398.38;4896676;29;20271;-73
2023/08/03 09:47:05;;;;;;;3.20;0.63;;;;;;;19.69;76.21;99395.09;4894122;29;20205;-70
2023/08/03 09:49:35;;;;;;;4.77;1.00;;;;;;;19.75;76.65;99396.84;4895035;29;20225;-72
2023/08/03 09:52:07;;;;;;;3.20;0.70;;;;;;;19.78;76.39;99402.59;4894210;29;20300;-72
2023/08/03 09:54:40;;;;;;;2.13;0.47;;;;;;;19.89;75.89;99401.75;4896737;29;20570;-69
2023/08/03 09:57:14;;;;;;;1.37;0.40;;;;;;;19.90;75.55;99406.09;4896011;29;20224;-71
2023/08/03 10:00:06;;;;;;;2.63;0.60;;;;;;;19.85;76.65;99405.97;4903524;29;20565;-73
2023/08/03 10:02:47;;;;;;;1.77;0.70;;;;;;;19.83;76.84;99416.16;4894621;29;20340;-70
2023/08/03 10:05:40;;;;;;;4.00;0.87;;;;;;;19.84;77.43;99422.34;4902180;29;20734;-74
2023/08/03 10:08:15;;;;;;;4.80;0.73;;;;;;;19.69;78.83;99422.00;4904021;29;20233;-67
2023/08/03 10:10:48;;;;;;;4.27;0.70;;;;;;;19.60;80.85;99420.69;4902880;29;20232;-69
2023/08/03 10:13:16;;;;;;;3.50;0.70;;;;;;;19.52;80.73;99429.94;4902659;29;20225;-71
2023/08/03 10:15:46;;;;;;;3.13;0.80;;;;;;;19.41;81.13;99436.88;4897421;29;20213;-72
2023/08/03 10:18:17;;;;;;;5.67;1.30;;;;;;;19.36;82.06;99435.91;4898714;29;20218;-72
2023/08/03 10:20:56;;;;;;;2.30;0.90;;;;;;;19.32;81.22;99424.00;4896754;29;20248;-70
2023/08/03 10:23:25;;;;;;;2.50;0.60;;;;;;;19.37;81.23;99435.69;4895977;29;20209;-72
2023/08/03 10:25:56;;;;;;;3.07;0.60;;;;;;;19.40;79.73;99426.34;4898015;29;20217;-69
2023/08/03 10:28:26;;;;;;;4.70;0.80;;;;;;;19.37;80.82;99434.88;4901918;29;20210;-73
2023/08/03 10:31:11;;;;;;;1.60;0.50;;;;;;;19.43;80.63;99433.97;4894450;29;20566;-72
2023/08/03 10:34:06;;;;;;;2.10;0.80;;;;;;;19.44;80.38;99433.72;4895411;29;20244;-70
2023/08/03 10:36:47;;;;;;;3.53;0.80;;;;;;;19.39;79.84;99436.28;4895508;29;20584;-69
2023/08/03 10:39:18;;;;;;;2.27;0.77;;;;;;;19.42;81.05;99441.22;4895919;29;20212;-70
2023/08/03 10:41:49;;;;;;;2.00;0.70;;;;;;;19.45;81.41;99435.34;4897336;29;20567;-70
2023/08/03 10:44:27;;;;;;;3.90;0.87;;;;;;;19.42;80.85;99432.31;4895409;29;20210;-71
2023/08/03 10:46:58;;;;;;;1.80;0.60;;;;;;;19.43;80.21;99439.34;4895776;29;20212;-68
2023/08/03 10:49:52;;;;;;;3.50;0.70;;;;;;;19.42;80.79;99437.69;4895830;29;20304;-71
2023/08/03 10:52:28;;;;;;;8.00;0.60;;;;;;;19.55;80.00;99440.19;4897185;29;20690;-68
2023/08/03 10:54:57;;;;;;;3.47;0.60;;;;;;;19.59;79.06;99445.94;4896756;29;20205;-71
2023/08/03 10:57:28;;;;;;;0.77;0.30;;;;;;;19.56;79.39;99436.47;4895650;29;20247;-72
2023/08/03 10:59:59;;;;;;;3.10;0.60;;;;;;;19.56;79.13;99444.53;4894348;29;20217;-71
2023/08/03 11:02:29;;;;;;;3.00;0.70;;;;;;;19.52;79.89;99443.38;4894979;29;20241;-69
2023/08/03 11:05:00;;;;;;;1.97;0.40;;;;;;;19.61;79.04;99449.22;4895620;29;21254;-68
2023/08/03 11:07:37;;;;;;;2.93;0.60;;;;;;;19.48;80.59;99444.88;4896085;29;21107;-70
2023/08/03 11:10:07;;;;;;;1.40;0.50;;;;;;;19.48;81.92;99450.25;4894249;29;20688;-72
2023/08/03 11:12:39;;;;;;;2.33;0.50;;;;;;;19.53;82.19;99459.25;4894165;29;20244;-70
2023/08/03 11:15:09;;;;;;;1.13;0.50;;;;;;;19.67;82.67;99454.50;4894635;29;20221;-68
2023/08/03 11:17:38;;;;;;;1.80;0.40;;;;;;;19.56;85.04;99466.03;4896267;29;20575;-69
2023/08/03 11:20:08;;;;;;;2.47;0.40;;;;;;;19.56;85.72;99468.72;4896557;29;20240;-70
2023/08/03 11:22:37;;;;;;;2.73;0.60;;;;;;;19.58;87.02;99472.00;4894502;29;20324;-70
2023/08/03 11:25:07;;;;;;;3.03;1.20;;;;;;;19.71;86.45;99466.41;4893838;29;21004;-65
2023/08/03 11:27:36;;;;;;;1.83;0.47;;;;;;;19.91;84.17;99461.53;4895749;29;20206;-70
2023/08/03 11:30:05;;;;;;;3.37;0.50;;;;;;;19.97;83.23;99459.78;4894774;29;20213;-70
2023/08/03 11:32:34;;;;;;;1.70;0.50;;;;;;;20.04;82.48;99465.06;4896516;29;20218;-65
2023/08/03 11:35:04;;;;;;;0.77;0.30;;;;;;;20.07;81.88;99460.00;4896279;29;20453;-69
2023/08/03 11:37:34;;;;;;;1.30;0.40;;;;;;;20.20;80.43;99465.19;4896276;29;20300;-69
2023/08/03 11:40:05;;;;;;;1.27;0.50;;;;;;;20.27;79.50;99478.50;4893839;29;20220;-67
2023/08/03 11:42:34;;;;;;;2.90;0.40;;;;;;;20.24;78.35;99478.97;4892519;29;20225;-70
2023/08/03 11:45:02;;;;;;;2.53;0.47;;;;;;;20.22;78.21;99483.78;4893509;29;20213;-68
2023/08/03 11:47:42;;;;;;;2.13;0.80;;;;;;;20.23;77.79;99490.78;4898411;29;20205;-69
2023/08/03 11:50:12;;;;;;;3.03;0.70;;;;;;;20.22;78.21;99494.56;4895094;29;21099;-70
2023/08/03 11:52:41;;;;;;;1.43;0.33;;;;;;;20.29;77.07;99489.88;4895274;29;20611;-69
2023/08/03 11:55:26;;;;;;;1.33;0.40;;;;;;;20.47;75.14;99484.38;4894418;29;20596;-70
2023/08/03 11:58:11;;;;;;;0.80;0.30;;;;;;;20.60;74.81;99486.81;4893731;29;20720;-67
2023/08/03 12:00:40;;;;;;;2.40;0.37;;;;;;;20.67;74.35;99495.56;4893720;29;20584;-71
2023/08/03 12:03:10;;;;;;;1.77;0.50;;;;;;;20.58;74.20;99505.06;4894829;29;20247;-72
2023/08/03 12:05:48;;;;;;;0.30;0.20;;;;;;;20.48;71.90;99496.78;4893122;29;21145;-70
2023/08/03 12:08:45;;;;;;;0.70;0.40;;;;;;;20.54;72.07;99495.03;4892635;29;20237;-68
2023/08/03 12:11:32;;;;;;;1.10;0.47;;;;;;;20.58;71.21;99498.91;4894787;29;20278;-72
2023/08/03 12:14:06;;;;;;;3.83;1.77;;;;;;;20.62;70.76;99495.47;4893396;29;20699;-71
2023/08/03 12:16:40;;;;;;;1.13;0.50;;;;;;;20.67;70.38;99507.44;4894540;29;20220;-73
2023/08/03 12:19:18;;;;;;;0.90;0.30;;;;;;;20.78;69.41;99498.47;4892345;29;20217;-72
2023/08/03 12:21:46;;;;;;;2.00;0.30;;;;;;;20.95;70.22;99499.38;4895197;29;20222;-73
2023/08/03 12:24:31;;;;;;;0.53;0.27;;;;;;;20.90;71.42;99499.28;4897146;29;20690;-72
2023/08/03 12:27:01;;;;;;;1.77;0.20;;;;;;;20.95;72.08;99502.06;4895854;29;20208;-72
2023/08/03 12:29:37;;;;;;;0.60;0.33;;;;;;;21.00;71.70;99503.00;4897101;29;20244;-73
2023/08/03 12:32:09;;;;;;;0.50;0.30;;;;;;;21.10;69.37;99488.91;4896850;29;20798;-74
2023/08/03 12:34:37;;;;;;;0.50;0.20;;;;;;;20.97;70.56;99494.56;4896681;29;20212;-73
2023/08/03 12:37:06;;;;;;;0.20;0.10;;;;;;;20.99;70.80;99501.38;4897570;29;20241;-71
2023/08/03 12:39:35;;;;;;;1.10;0.33;;;;;;;21.03;70.44;99494.44;4898568;29;20317;-73
2023/08/03 12:42:08;;;;;;;0.60;0.40;;;;;;;21.02;69.99;99521.63;4898059;29;21076;-70
2023/08/03 12:44:36;;;;;;;1.53;0.40;;;;;;;20.91;69.57;99525.19;4897920;29;20217;-71
2023/08/03 12:47:15;;;;;;;1.67;0.57;;;;;;;20.91;69.44;99530.56;4896316;29;20261;-70
2023/08/03 12:49:59;;;;;;;2.30;0.40;;;;;;;20.87;69.89;99540.16;4897900;29;20291;-72
2023/08/03 12:52:41;;;;;;;2.17;0.60;;;;;;;20.84;69.56;99533.41;4896562;29;20208;-69
2023/08/03 12:55:19;;;;;;;2.30;0.50;;;;;;;20.86;70.40;99522.34;4899622;29;20213;-71
2023/08/03 12:57:52;;;;;;;2.07;0.50;;;;;;;20.84;71.14;99524.50;4899496;29;20209;-67
2023/08/03 13:00:27;;;;;;;2.57;0.70;;;;;;;20.79;71.32;99532.44;4900156;29;20217;-70
2023/08/03 13:02:56;;;;;;;1.10;0.50;;;;;;;20.81;70.84;99538.44;4898922;29;20608;-73
2023/08/03 13:05:27;;;;;;;1.13;0.33;;;;;;;20.84;69.67;99543.34;4900637;29;20215;-73
2023/08/03 13:08:12;;;;;;;4.67;0.47;;;;;;;20.84;69.45;99544.19;4898687;29;20237;-71
2023/08/03 13:10:41;;;;;;;2.70;1.23;;;;;;;20.84;69.71;99552.25;4898282;29;20236;-73
2023/08/03 13:13:21;;;;;;;1.70;0.70;;;;;;;20.86;70.09;99558.22;4894161;29;20686;-71
2023/08/03 13:15:57;;;;;;;5.53;0.80;;;;;;;20.83;69.93;99555.19;4895917;29;20228;-71
2023/08/03 13:18:31;;;;;;;1.97;0.57;;;;;;;20.77;69.88;99578.47;4895733;29;20209;-72
2023/08/03 13:21:05;;;;;;;1.03;0.30;;;;;;;20.76;69.59;99576.06;4896145;29;20241;-71
2023/08/03 13:23:56;;;;;;;1.53;0.50;;;;;;;20.71;70.46;99584.81;4895593;29;20233;-74
2023/08/03 13:26:32;;;;;;;2.40;0.80;;;;;;;20.64;71.77;99598.41;4900247;29;20252;-73
2023/08/03 13:29:11;;;;;;;2.57;0.90;;;;;;;20.60;74.42;99594.53;4899989;29;21166;-72
2023/08/03 13:31:40;;;;;;;2.43;0.60;;;;;;;20.67;74.40;99585.53;4897784;29;20211;-69
2023/08/03 13:34:31;;;;;;;2.10;0.60;;;;;;;20.61;74.39;99585.41;4896907;29;20693;-73
2023/08/03 13:37:00;;;;;;;1.37;0.60;;;;;;;20.62;74.71;99581.66;4897014;29;20225;-70
2023/08/03 13:39:37;;;;;;;2.87;0.60;;;;;;;20.56;75.64;99581.78;4897005;29;20216;-71
2023/08/03 13:42:27;;;;;;;6.73;0.87;;;;;;;20.53;74.45;99593.84;4897121;29;20213;-71
2023/08/03 13:45:00;;;;;;;1.10;0.47;;;;;;;20.59;74.04;99587.50;4898990;29;20601;-70
2023/08/03 13:47:43;;;;;;;1.97;0.50;;;;;;;20.67;73.74;99589.84;4900914;29;20709;-71
2023/08/03 13:50:25;;;;;;;2.17;1.00;;;;;;;20.69;73.83;99586.91;4895598;29;20232;-68
2023/08/03 13:52:56;;;;;;;3.77;1.00;;;;;;;20.74;73.67;99588.94;4896548;29;20675;-71
2023/08/03 13:55:40;;;;;;;3.47;0.60;;;;;;;20.82;72.95;99588.56;4898457;29;20814;-71
2023/08/03 13:58:18;;;;;;;2.10;0.60;;;;;;;20.84;72.84;99589.16;4900383;29;20217;-71
2023/08/03 14:02:06;;;;;;;1.03;0.63;;;;;;;20.91;74.01;99589.84;4869557;29;20223;-72
2023/08/03 14:05:22;;;;;;;;;;;;;;;;;;;;;
2023/08/03 14:08:25;;;;;;;2.90;0.80;;;;;;;20.95;73.75;99585.59;4895116;29;20329;-71
2023/08/03 14:10:53;;;;;;;1.83;0.60;;;;;;;21.01;72.73;99576.59;4897647;29;20213;-71
2023/08/03 14:13:24;;;;;;;3.63;0.80;;;;;;;21.11;72.96;99579.47;4898370;29;20218;-68
2023/08/03 14:19:50;;;;;;;2.23;1.00;;;;;;;21.26;71.11;99582.53;4888546;29;20669;-71
2023/08/03 14:22:20;;;;;;;3.27;1.00;;;;;;;21.29;70.44;99581.22;4898402;29;20224;-71
2023/08/03 14:24:55;;;;;;;2.63;1.00;;;;;;;21.29;70.22;99592.00;4896789;29;20273;-70
2023/08/03 14:27:30;;;;;;;2.80;0.70;;;;;;;21.27;68.85;99578.78;4898530;29;20217;-72
2023/08/03 14:30:30;;;;;;;;;;;;;;;;;;;;;
2023/08/03 14:33:03;;;;;;;3.23;1.10;;;;;;;21.35;68.55;99554.13;4896279;29;20217;-72
2023/08/03 14:35:45;;;;;;;6.63;0.90;;;;;;;21.40;68.55;99553.41;4895963;29;20229;-73
2023/08/03 14:41:21;;;;;;;3.00;1.00;;;;;;;21.41;68.74;99557.75;4893248;29;20283;-72
2023/08/03 14:44:10;;;;;;;2.87;0.87;;;;;;;21.37;67.84;99554.69;4895438;29;20224;-70
2023/08/03 14:46:47;;;;;;;5.27;1.00;;;;;;;21.33;66.89;99560.81;4896880;29;20300;-70
2023/08/03 14:49:33;;;;;;;5.63;1.23;;;;;;;21.27;66.87;99559.91;4880479;29;20253;-73
2023/08/03 14:52:12;;;;;;;4.27;1.10;;;;;;;21.32;66.96;99565.41;4897992;29;20213;-70
2023/08/03 14:54:57;;;;;;;1.73;0.70;;;;;;;21.43;64.99;99562.91;4896557;29;20205;-68
2023/08/03 14:57:30;;;;;;;4.00;0.77;;;;;;;21.43;65.40;99554.81;4896155;29;20201;-68
2023/08/03 15:00:06;;;;;;;3.67;0.93;;;;;;;21.54;64.30;99567.44;4898961;29;20843;-74
2023/08/03 15:02:36;;;;;;;5.27;1.10;;;;;;;21.46;65.27;99567.81;4896267;29;20208;-70
2023/08/03 15:05:11;;;;;;;4.53;0.83;;;;;;;21.47;65.03;99567.56;4896051;29;20235;-72
2023/08/03 15:07:44;;;;;;;2.07;0.70;;;;;;;21.48;65.36;99573.78;4897712;29;20237;-71
2023/08/03 15:10:19;;;;;;;3.10;0.90;;;;;;;21.54;65.60;99595.22;4897760;29;20704;-68
2023/08/03 15:12:48;;;;;;;3.10;1.00;;;;;;;21.62;66.06;99575.13;4894203;29;20217;-71
2023/08/03 15:15:16;;;;;;;3.87;0.77;;;;;;;21.70;64.52;99577.44;4898895;29;20675;-69
2023/08/03 15:17:58;;;;;;;3.17;1.00;;;;;;;21.73;63.54;99593.13;4896909;29;20220;-71
2023/08/03 15:20:34;;;;;;;2.03;0.60;;;;;;;21.67;63.56;99594.94;4896382;29;20213;-67
2023/08/03 15:23:14;;;;;;;3.57;1.10;;;;;;;21.66;64.23;99593.28;4896976;29;20671;-66
2023/08/03 15:25:47;;;;;;;2.40;0.77;;;;;;;21.66;65.24;99598.69;4899267;29;20266;-65
2023/08/03 15:31:59;;;;;;;5.00;0.83;;;;;;;21.77;65.84;99602.38;4895704;29;20415;-70
2023/08/03 15:34:47;;;;;;;3.33;0.73;;;;;;;21.75;67.00;99604.50;4897259;29;20208;-64
2023/08/03 15:37:29;;;;;;;2.07;0.60;;;;;;;21.63;66.56;99618.06;4897409;29;20264;-66
2023/08/03 15:40:20;;;;;;;3.50;0.95;;;;;;;21.50;66.06;99618.34;4899716;29;20240;-64
2023/08/03 15:42:55;;;;;;;2.87;0.90;;;;;;;21.41;66.29;99625.16;4896383;29;20914;-66
2023/08/03 15:45:25;;;;;;;1.97;0.80;;;;;;;21.34;66.54;99619.91;4899982;29;20252;-65
2023/08/03 15:47:59;;;;;;;3.17;0.70;;;;;;;21.32;66.55;99618.50;4896657;29;20477;-65
2023/08/03 15:50:45;;;;;;;3.77;1.00;;;;;;;21.29;66.85;99624.34;4897045;29;20300;-65
2023/08/03 15:53:26;;;;;;;3.27;1.03;;;;;;;21.27;66.53;99621.09;4897547;29;20219;-64
2023/08/03 15:56:20;;;;;;;4.00;0.73;;;;;;;21.24;67.20;99621.56;4896677;29;20212;-64
2023/08/03 15:59:01;;;;;;;4.63;1.00;;;;;;;21.26;67.50;99627.56;4895393;29;20635;-64
2023/08/03 16:01:36;;;;;;;4.10;1.30;;;;;;;21.30;67.92;99624.13;4897127;29;20216;-66
2023/08/03 16:04:05;;;;;;;4.07;1.17;;;;;;;21.37;68.00;99624.81;4900956;29;20586;-65
2023/08/03 16:06:35;;;;;;;4.33;1.17;;;;;;;21.38;67.77;99634.53;4903040;29;20347;-64
2023/08/03 16:09:14;;;;;;;2.37;0.70;;;;;;;21.45;67.64;99633.59;4899303;29;20221;-65
2023/08/03 16:11:45;;;;;;;1.70;0.67;;;;;;;21.55;67.60;99633.81;4899298;29;20212;-65
2023/08/03 16:14:26;;;;;;;3.50;1.17;;;;;;;21.60;68.16;99631.19;4902351;29;20773;-65
2023/08/03 16:16:57;;;;;;;3.33;1.20;;;;;;;21.56;67.28;99635.44;4900120;29;20209;-65
2023/08/03 16:19:36;;;;;;;5.93;1.30;;;;;;;21.52;66.42;99635.09;4901917;29;20296;-66
2023/08/03 16:22:05;;;;;;;4.67;1.50;;;;;;;21.51;65.83;99628.06;4900331;29;20223;-64
2023/08/03 16:24:37;;;;;;;3.97;1.50;;;;;;;21.62;65.53;99634.47;4904692;29;20299;-65
2023/08/03 16:27:25;;;;;;;5.63;2.67;;;;;;;21.66;66.06;99627.53;4898083;29;20754;-65
2023/08/03 16:30:00;;;;;;;4.45;1.58;;;;;;;21.62;65.19;99640.69;4900282;29;20244;-66
2023/08/03 16:32:30;;;;;;;5.00;1.40;;;;;;;21.65;64.84;99644.78;4900481;29;20219;-66
2023/08/03 16:34:59;;;;;;;4.33;1.60;;;;;;;21.63;64.39;99639.66;4902102;29;20213;-65
2023/08/03 16:37:33;;;;;;;3.13;1.00;;;;;;;21.64;64.83;99633.16;4898604;29;20224;-65
2023/08/03 16:40:01;;;;;;;1.37;0.60;;;;;;;21.78;64.14;99639.09;4901774;29;20217;-65
2023/08/03 16:42:31;;;;;;;2.53;0.93;;;;;;;21.71;64.57;99641.13;4898715;29;20218;-67
2023/08/03 16:45:03;;;;;;;3.87;1.43;;;;;;;21.68;64.44;99650.53;4897668;29;20244;-66
2023/08/03 16:47:35;;;;;;;2.63;1.10;;;;;;;21.73;64.67;99649.78;4896443;29;20216;-64
2023/08/03 16:50:29;;;;;;;2.13;0.70;;;;;;;21.74;65.07;99646.03;4896195;29;20307;-64
2023/08/03 16:53:18;;;;;;;2.53;0.80;;;;;;;21.80;65.22;99641.56;4900353;29;20208;-63
2023/08/03 16:56:06;;;;;;;1.93;0.90;;;;;;;21.82;64.83;99640.25;4891126;29;20902;-64
2023/08/03 16:58:39;;;;;;;3.77;1.10;;;;;;;21.78;64.43;99644.50;4899440;29;20886;-64
2023/08/03 17:01:29;;;;;;;3.47;0.93;;;;;;;21.78;64.20;99644.50;4872775;29;20225;-65
2023/08/03 17:07:12;;;;;;;6.30;1.13;;;;;;;21.79;63.65;99640.75;4899664;29;20245;-64
2023/08/03 17:09:42;;;;;;;3.03;1.00;;;;;;;21.84;63.76;99643.53;4898663;29;20525;-65
2023/08/03 17:12:20;;;;;;;2.77;1.37;;;;;;;21.84;63.61;99638.13;4897226;29;20846;-64
2023/08/03 17:15:09;;;;;;;4.80;2.00;;;;;;;21.89;63.46;99643.66;4901053;29;20236;-65
2023/08/03 17:17:49;;;;;;;3.80;1.65;;;;;;;21.87;64.08;99651.16;4900805;29;20213;-64
2023/08/03 17:20:17;;;;;;;3.15;1.50;;;;;;;21.87;64.11;99659.25;4900161;29;20701;-65
2023/08/03 17:22:46;;;;;;;2.10;0.98;;;;;;;21.85;63.72;99664.06;4901814;29;20219;-65
2023/08/03 17:25:31;;;;;;;4.43;1.40;;;;;;;21.84;63.32;99657.03;4876461;29;20362;-65
2023/08/03 17:28:10;;;;;;;3.17;1.05;;;;;;;21.84;63.48;99664.31;4896749;29;20214;-65
2023/08/03 17:30:50;;;;;;;3.92;1.38;;;;;;;21.81;63.59;99665.63;4896644;29;20277;-66
2023/08/03 17:33:27;;;;;;;4.32;1.60;;;;;;;21.79;64.10;99678.53;4898428;29;20222;-65
2023/08/03 17:36:10;;;;;;;5.35;1.50;;;;;;;21.75;64.29;99672.78;4897153;29;20634;-65
2023/08/03 17:38:40;;;;;;;3.58;1.30;;;;;;;21.71;63.70;99678.91;4897489;29;20252;-64
2023/08/03 17:41:14;;;;;;;4.07;1.98;;;;;;;21.65;63.91;99677.97;4899918;29;20217;-66
2023/08/03 17:43:45;;;;;;;3.80;1.80;;;;;;;21.59;64.64;99678.13;4897008;29;20224;-66
2023/08/03 17:46:30;;;;;;;5.22;2.15;;;;;;;21.56;65.14;99681.28;4898744;29;20603;-64
2023/08/03 17:49:00;;;;;;;8.93;2.90;;;;;;;21.51;65.14;99683.88;4897110;29;20958;-65
2023/08/03 17:52:18;;;;;;;4.27;1.47;;;;;;;21.51;64.90;99689.28;4891435;29;20901;-65
2023/08/03 17:58:28;;;;;;;3.50;1.20;;;;;;;21.38;66.24;99695.75;4862317;29;20218;-65
2023/08/03 18:03:49;;;;;;;4.20;1.10;;;;;;;21.35;66.71;99713.22;4889715;29;20793;-65
2023/08/03 18:06:28;;;;;;;3.30;0.93;;;;;;;21.33;66.71;99709.94;4896749;29;20659;-64
2023/08/03 18:09:09;;;;;;;3.00;1.07;;;;;;;21.31;66.76;99720.13;4897922;29;20210;-66